sensor_id;sensor_type;location;lat;lon;timestamp;temperature;humidity
54429;DHT22;40337;52.978;6.310;2024-02-28T00:01:48;3.90;99.90
54429;DHT22;40337;52.978;6.310;2024-02-28T00:04:14;4.00;99.90
54429;DHT22;40337;52.978;6.310;2024-02-28T00:06:39;3.90;99.90
54429;DHT22;40337;52.978;6.310;2024-02-28T00:09:05;3.90;99.90
54429;DHT22;40337;52.978;6.310;2024-02-28T00:11:31;3.90;99.90
54429;DHT22;40337;52.978;6.310;2024-02-28T00:13:58;4.00;99.90
54429;DHT22;40337;52.978;6.310;2024-02-28T00:16:25;3.90;99.90
54429;DHT22;40337;52.978;6.310;2024-02-28T00:18:51;3.90;99.90
54429;DHT22;40337;52.978;6.310;2024-02-28T00:21:17;3.90;99.90
54429;DHT22;40337;52.978;6.310;2024-02-28T00:23:42;4.00;99.90
54429;DHT22;40337;52.978;6.310;2024-02-28T00:26:08;4.00;99.90
54429;DHT22;40337;52.978;6.310;2024-02-28T00:28:34;3.90;99.90
54429;DHT22;40337;52.978;6.310;2024-02-28T00:30:59;4.00;99.90
54429;DHT22;40337;52.978;6.310;2024-02-28T00:33:25;3.90;99.90
54429;DHT22;40337;52.978;6.310;2024-02-28T00:35:50;4.00;99.90
54429;DHT22;40337;52.978;6.310;2024-02-28T00:38:18;3.90;99.90
54429;DHT22;40337;52.978;6.310;2024-02-28T00:40:44;4.00;99.90
54429;DHT22;40337;52.978;6.310;2024-02-28T00:43:10;4.00;99.90
54429;DHT22;40337;52.978;6.310;2024-02-28T00:45:35;3.90;99.90
54429;DHT22;40337;52.978;6.310;2024-02-28T00:48:01;4.00;99.90
54429;DHT22;40337;52.978;6.310;2024-02-28T00:50:27;3.90;99.90
54429;DHT22;40337;52.978;6.310;2024-02-28T00:52:52;4.00;99.90
54429;DHT22;40337;52.978;6.310;2024-02-28T00:55:18;3.90;99.90
54429;DHT22;40337;52.978;6.310;2024-02-28T00:57:44;4.00;99.90
54429;DHT22;40337;52.978;6.310;2024-02-28T01:00:10;3.90;99.90
54429;DHT22;40337;52.978;6.310;2024-02-28T01:02:55;3.90;99.90
54429;DHT22;40337;52.978;6.310;2024-02-28T01:05:40;3.90;99.90
54429;DHT22;40337;52.978;6.310;2024-02-28T01:08:06;3.80;99.90
54429;DHT22;40337;52.978;6.310;2024-02-28T01:10:33;3.90;99.90
54429;DHT22;40337;52.978;6.310;2024-02-28T01:12:58;3.90;99.90
54429;DHT22;40337;52.978;6.310;2024-02-28T01:15:24;3.80;99.90
54429;DHT22;40337;52.978;6.310;2024-02-28T01:17:50;3.90;99.90
54429;DHT22;40337;52.978;6.310;2024-02-28T01:20:15;3.80;99.90
54429;DHT22;40337;52.978;6.310;2024-02-28T01:22:41;3.80;99.90
54429;DHT22;40337;52.978;6.310;2024-02-28T01:25:07;3.80;99.90
54429;DHT22;40337;52.978;6.310;2024-02-28T01:27:33;3.80;99.90
54429;DHT22;40337;52.978;6.310;2024-02-28T01:29:58;3.90;99.90
54429;DHT22;40337;52.978;6.310;2024-02-28T01:32:24;3.80;99.90
54429;DHT22;40337;52.978;6.310;2024-02-28T01:34:50;3.90;99.90
54429;DHT22;40337;52.978;6.310;2024-02-28T01:37:15;3.90;99.90
54429;DHT22;40337;52.978;6.310;2024-02-28T01:39:41;3.80;99.90
54429;DHT22;40337;52.978;6.310;2024-02-28T01:42:07;3.90;99.90
54429;DHT22;40337;52.978;6.310;2024-02-28T01:44:40;3.90;99.90
54429;DHT22;40337;52.978;6.310;2024-02-28T01:47:06;3.90;99.90
54429;DHT22;40337;52.978;6.310;2024-02-28T01:49:32;3.90;99.90
54429;DHT22;40337;52.978;6.310;2024-02-28T01:51:58;3.90;99.90
54429;DHT22;40337;52.978;6.310;2024-02-28T01:54:24;3.90;99.90
54429;DHT22;40337;52.978;6.310;2024-02-28T01:56:50;3.90;99.90
54429;DHT22;40337;52.978;6.310;2024-02-28T01:59:17;3.90;99.90
54429;DHT22;40337;52.978;6.310;2024-02-28T02:01:43;3.90;99.90
54429;DHT22;40337;52.978;6.310;2024-02-28T02:04:08;3.90;99.90
54429;DHT22;40337;52.978;6.310;2024-02-28T02:06:38;3.90;99.90
54429;DHT22;40337;52.978;6.310;2024-02-28T02:09:04;3.90;99.90
54429;DHT22;40337;52.978;6.310;2024-02-28T02:11:30;3.90;99.90
54429;DHT22;40337;52.978;6.310;2024-02-28T02:13:55;3.90;99.90
54429;DHT22;40337;52.978;6.310;2024-02-28T02:16:21;3.90;99.90
54429;DHT22;40337;52.978;6.310;2024-02-28T02:18:53;3.90;99.90
54429;DHT22;40337;52.978;6.310;2024-02-28T02:21:23;4.00;99.90
54429;DHT22;40337;52.978;6.310;2024-02-28T02:23:52;4.00;99.90
54429;DHT22;40337;52.978;6.310;2024-02-28T02:26:17;4.00;99.90
54429;DHT22;40337;52.978;6.310;2024-02-28T02:28:43;4.00;99.90
54429;DHT22;40337;52.978;6.310;2024-02-28T02:31:11;4.00;99.90
54429;DHT22;40337;52.978;6.310;2024-02-28T02:33:36;4.10;99.90
54429;DHT22;40337;52.978;6.310;2024-02-28T02:36:02;4.00;99.90
54429;DHT22;40337;52.978;6.310;2024-02-28T02:38:28;4.10;99.90
54429;DHT22;40337;52.978;6.310;2024-02-28T02:40:53;4.10;99.90
54429;DHT22;40337;52.978;6.310;2024-02-28T02:43:19;4.10;99.90
54429;DHT22;40337;52.978;6.310;2024-02-28T02:45:45;4.10;99.90
54429;DHT22;40337;52.978;6.310;2024-02-28T02:48:11;4.10;99.90
54429;DHT22;40337;52.978;6.310;2024-02-28T02:50:37;4.10;99.90
54429;DHT22;40337;52.978;6.310;2024-02-28T02:53:03;4.10;99.90
54429;DHT22;40337;52.978;6.310;2024-02-28T02:55:29;4.10;99.90
54429;DHT22;40337;52.978;6.310;2024-02-28T02:57:55;4.10;99.90
54429;DHT22;40337;52.978;6.310;2024-02-28T03:00:21;4.10;99.90
54429;DHT22;40337;52.978;6.310;2024-02-28T03:02:47;4.10;99.90
54429;DHT22;40337;52.978;6.310;2024-02-28T03:05:13;4.10;99.90
54429;DHT22;40337;52.978;6.310;2024-02-28T03:07:38;4.10;99.90
54429;DHT22;40337;52.978;6.310;2024-02-28T03:10:05;4.10;99.90
54429;DHT22;40337;52.978;6.310;2024-02-28T03:12:31;4.20;99.90
54429;DHT22;40337;52.978;6.310;2024-02-28T03:14:56;4.20;99.90
54429;DHT22;40337;52.978;6.310;2024-02-28T03:17:22;4.20;99.90
54429;DHT22;40337;52.978;6.310;2024-02-28T03:19:48;4.20;99.90
54429;DHT22;40337;52.978;6.310;2024-02-28T03:22:13;4.20;99.90
54429;DHT22;40337;52.978;6.310;2024-02-28T03:24:39;4.20;99.90
54429;DHT22;40337;52.978;6.310;2024-02-28T03:27:05;4.20;99.90
54429;DHT22;40337;52.978;6.310;2024-02-28T03:29:31;4.20;99.90
54429;DHT22;40337;52.978;6.310;2024-02-28T03:31:58;4.20;99.90
54429;DHT22;40337;52.978;6.310;2024-02-28T03:34:24;4.30;99.90
54429;DHT22;40337;52.978;6.310;2024-02-28T03:36:50;4.30;99.90
54429;DHT22;40337;52.978;6.310;2024-02-28T03:39:16;4.30;99.90
54429;DHT22;40337;52.978;6.310;2024-02-28T03:41:42;4.30;99.90
54429;DHT22;40337;52.978;6.310;2024-02-28T03:44:07;4.30;99.90
54429;DHT22;40337;52.978;6.310;2024-02-28T03:46:33;4.30;99.90
54429;DHT22;40337;52.978;6.310;2024-02-28T03:48:59;4.30;99.90
54429;DHT22;40337;52.978;6.310;2024-02-28T03:51:24;4.30;99.90
54429;DHT22;40337;52.978;6.310;2024-02-28T03:53:50;4.30;99.90
54429;DHT22;40337;52.978;6.310;2024-02-28T03:56:23;4.30;99.90
54429;DHT22;40337;52.978;6.310;2024-02-28T03:58:53;4.40;99.90
54429;DHT22;40337;52.978;6.310;2024-02-28T04:01:18;4.40;99.90
54429;DHT22;40337;52.978;6.310;2024-02-28T04:03:44;4.40;99.90
54429;DHT22;40337;52.978;6.310;2024-02-28T04:06:13;4.40;99.90
54429;DHT22;40337;52.978;6.310;2024-02-28T04:08:40;4.40;99.90
54429;DHT22;40337;52.978;6.310;2024-02-28T04:11:06;4.40;99.90
54429;DHT22;40337;52.978;6.310;2024-02-28T04:13:32;4.40;99.90
54429;DHT22;40337;52.978;6.310;2024-02-28T04:15:58;4.40;99.90
54429;DHT22;40337;52.978;6.310;2024-02-28T04:18:24;4.40;99.90
54429;DHT22;40337;52.978;6.310;2024-02-28T04:20:50;4.50;99.90
54429;DHT22;40337;52.978;6.310;2024-02-28T04:23:15;4.40;99.90
54429;DHT22;40337;52.978;6.310;2024-02-28T04:25:42;4.50;99.90
54429;DHT22;40337;52.978;6.310;2024-02-28T04:28:08;4.50;99.90
54429;DHT22;40337;52.978;6.310;2024-02-28T04:30:34;4.40;99.90
54429;DHT22;40337;52.978;6.310;2024-02-28T04:33:00;4.50;99.90
54429;DHT22;40337;52.978;6.310;2024-02-28T04:35:25;4.50;99.90
54429;DHT22;40337;52.978;6.310;2024-02-28T04:37:51;4.40;99.90
54429;DHT22;40337;52.978;6.310;2024-02-28T04:40:17;4.50;99.90
54429;DHT22;40337;52.978;6.310;2024-02-28T04:42:42;4.40;99.90
54429;DHT22;40337;52.978;6.310;2024-02-28T04:45:08;4.40;99.90
54429;DHT22;40337;52.978;6.310;2024-02-28T04:47:34;4.40;99.90
54429;DHT22;40337;52.978;6.310;2024-02-28T04:50:00;4.40;99.90
54429;DHT22;40337;52.978;6.310;2024-02-28T04:52:25;4.40;99.90
54429;DHT22;40337;52.978;6.310;2024-02-28T04:54:52;4.40;99.90
54429;DHT22;40337;52.978;6.310;2024-02-28T04:57:19;4.40;99.90
54429;DHT22;40337;52.978;6.310;2024-02-28T04:59:45;4.40;99.90
54429;DHT22;40337;52.978;6.310;2024-02-28T05:02:11;4.40;99.90
54429;DHT22;40337;52.978;6.310;2024-02-28T05:04:37;4.40;99.90
54429;DHT22;40337;52.978;6.310;2024-02-28T05:07:03;4.40;99.90
54429;DHT22;40337;52.978;6.310;2024-02-28T05:09:29;4.40;99.90
54429;DHT22;40337;52.978;6.310;2024-02-28T05:11:55;4.40;99.90
54429;DHT22;40337;52.978;6.310;2024-02-28T05:14:20;4.50;99.90
54429;DHT22;40337;52.978;6.310;2024-02-28T05:16:49;4.50;99.90
54429;DHT22;40337;52.978;6.310;2024-02-28T05:19:15;4.50;99.90
54429;DHT22;40337;52.978;6.310;2024-02-28T05:21:43;4.50;99.90
54429;DHT22;40337;52.978;6.310;2024-02-28T05:24:09;4.50;99.90
54429;DHT22;40337;52.978;6.310;2024-02-28T05:26:36;4.50;99.90
54429;DHT22;40337;52.978;6.310;2024-02-28T05:29:02;4.40;99.90
54429;DHT22;40337;52.978;6.310;2024-02-28T05:31:29;4.50;99.90
54429;DHT22;40337;52.978;6.310;2024-02-28T05:33:56;4.50;99.90
54429;DHT22;40337;52.978;6.310;2024-02-28T05:36:23;4.50;99.90
54429;DHT22;40337;52.978;6.310;2024-02-28T05:38:49;4.50;99.90
54429;DHT22;40337;52.978;6.310;2024-02-28T05:41:18;4.50;99.90
54429;DHT22;40337;52.978;6.310;2024-02-28T05:43:44;4.50;99.90
54429;DHT22;40337;52.978;6.310;2024-02-28T05:46:11;4.50;99.90
54429;DHT22;40337;52.978;6.310;2024-02-28T05:48:36;4.50;99.90
54429;DHT22;40337;52.978;6.310;2024-02-28T05:51:03;4.50;99.90
54429;DHT22;40337;52.978;6.310;2024-02-28T05:53:29;4.50;99.90
54429;DHT22;40337;52.978;6.310;2024-02-28T05:56:02;4.60;99.90
54429;DHT22;40337;52.978;6.310;2024-02-28T05:58:29;4.60;99.90
54429;DHT22;40337;52.978;6.310;2024-02-28T06:00:54;4.50;99.90
54429;DHT22;40337;52.978;6.310;2024-02-28T06:03:20;4.60;99.90
54429;DHT22;40337;52.978;6.310;2024-02-28T06:05:46;4.60;99.90
54429;DHT22;40337;52.978;6.310;2024-02-28T06:08:14;4.40;99.90
54429;DHT22;40337;52.978;6.310;2024-02-28T06:10:41;4.60;99.90
54429;DHT22;40337;52.978;6.310;2024-02-28T06:13:08;4.60;99.90
54429;DHT22;40337;52.978;6.310;2024-02-28T06:15:34;4.60;99.90
54429;DHT22;40337;52.978;6.310;2024-02-28T06:18:00;4.60;99.90
54429;DHT22;40337;52.978;6.310;2024-02-28T06:20:26;4.60;99.90
54429;DHT22;40337;52.978;6.310;2024-02-28T06:22:53;4.60;99.90
54429;DHT22;40337;52.978;6.310;2024-02-28T06:25:19;4.60;99.90
54429;DHT22;40337;52.978;6.310;2024-02-28T06:27:45;4.60;99.90
54429;DHT22;40337;52.978;6.310;2024-02-28T06:30:11;4.70;99.90
54429;DHT22;40337;52.978;6.310;2024-02-28T06:32:42;4.70;99.90
54429;DHT22;40337;52.978;6.310;2024-02-28T06:35:08;4.70;99.90
54429;DHT22;40337;52.978;6.310;2024-02-28T06:37:34;4.70;99.90
54429;DHT22;40337;52.978;6.310;2024-02-28T06:40:02;4.70;99.90
54429;DHT22;40337;52.978;6.310;2024-02-28T06:42:29;4.70;99.90
54429;DHT22;40337;52.978;6.310;2024-02-28T06:44:55;4.80;99.90
54429;DHT22;40337;52.978;6.310;2024-02-28T06:47:21;4.80;99.90
54429;DHT22;40337;52.978;6.310;2024-02-28T06:49:46;4.80;99.90
54429;DHT22;40337;52.978;6.310;2024-02-28T06:52:12;4.80;99.90
54429;DHT22;40337;52.978;6.310;2024-02-28T06:54:38;4.90;99.90
54429;DHT22;40337;52.978;6.310;2024-02-28T06:57:03;4.90;99.90
54429;DHT22;40337;52.978;6.310;2024-02-28T06:59:29;4.90;99.90
54429;DHT22;40337;52.978;6.310;2024-02-28T07:01:55;4.90;99.90
54429;DHT22;40337;52.978;6.310;2024-02-28T07:04:20;5.00;99.90
54429;DHT22;40337;52.978;6.310;2024-02-28T07:06:46;5.00;99.90
54429;DHT22;40337;52.978;6.310;2024-02-28T07:09:12;5.00;99.90
54429;DHT22;40337;52.978;6.310;2024-02-28T07:11:38;5.00;99.90
54429;DHT22;40337;52.978;6.310;2024-02-28T07:14:04;5.00;99.90
54429;DHT22;40337;52.978;6.310;2024-02-28T07:16:30;5.10;99.90
54429;DHT22;40337;52.978;6.310;2024-02-28T07:19:00;5.10;99.90
54429;DHT22;40337;52.978;6.310;2024-02-28T07:21:25;5.10;99.90
54429;DHT22;40337;52.978;6.310;2024-02-28T07:23:51;5.20;99.90
54429;DHT22;40337;52.978;6.310;2024-02-28T07:26:17;5.20;99.90
54429;DHT22;40337;52.978;6.310;2024-02-28T07:28:43;5.20;99.90
54429;DHT22;40337;52.978;6.310;2024-02-28T07:31:18;5.20;99.90
54429;DHT22;40337;52.978;6.310;2024-02-28T07:33:44;5.20;99.90
54429;DHT22;40337;52.978;6.310;2024-02-28T07:36:11;5.30;99.90
54429;DHT22;40337;52.978;6.310;2024-02-28T07:38:37;5.30;99.90
54429;DHT22;40337;52.978;6.310;2024-02-28T07:41:03;5.30;99.90
54429;DHT22;40337;52.978;6.310;2024-02-28T07:43:29;5.30;99.90
54429;DHT22;40337;52.978;6.310;2024-02-28T07:45:58;5.40;99.90
54429;DHT22;40337;52.978;6.310;2024-02-28T07:48:24;5.40;99.90
54429;DHT22;40337;52.978;6.310;2024-02-28T07:50:50;5.40;99.90
54429;DHT22;40337;52.978;6.310;2024-02-28T07:53:16;5.40;99.90
54429;DHT22;40337;52.978;6.310;2024-02-28T07:55:42;5.50;99.90
54429;DHT22;40337;52.978;6.310;2024-02-28T07:58:08;5.50;99.90
54429;DHT22;40337;52.978;6.310;2024-02-28T08:00:35;5.50;99.90
54429;DHT22;40337;52.978;6.310;2024-02-28T08:03:01;5.50;99.90
54429;DHT22;40337;52.978;6.310;2024-02-28T08:05:26;5.60;99.90
54429;DHT22;40337;52.978;6.310;2024-02-28T08:07:52;5.60;99.90
54429;DHT22;40337;52.978;6.310;2024-02-28T08:10:18;5.60;99.90
54429;DHT22;40337;52.978;6.310;2024-02-28T08:12:43;5.60;99.90
54429;DHT22;40337;52.978;6.310;2024-02-28T08:15:09;5.70;99.90
54429;DHT22;40337;52.978;6.310;2024-02-28T08:17:35;5.70;99.90
54429;DHT22;40337;52.978;6.310;2024-02-28T08:20:03;5.70;99.90
54429;DHT22;40337;52.978;6.310;2024-02-28T08:22:30;5.70;99.90
54429;DHT22;40337;52.978;6.310;2024-02-28T08:24:56;5.70;99.90
54429;DHT22;40337;52.978;6.310;2024-02-28T08:27:22;5.70;99.90
54429;DHT22;40337;52.978;6.310;2024-02-28T08:29:52;5.80;99.90
54429;DHT22;40337;52.978;6.310;2024-02-28T08:32:17;5.80;99.90
54429;DHT22;40337;52.978;6.310;2024-02-28T08:34:47;5.80;99.90
54429;DHT22;40337;52.978;6.310;2024-02-28T08:37:13;5.80;99.90
54429;DHT22;40337;52.978;6.310;2024-02-28T08:39:39;5.80;99.90
54429;DHT22;40337;52.978;6.310;2024-02-28T08:42:05;5.80;99.90
54429;DHT22;40337;52.978;6.310;2024-02-28T08:44:31;5.80;99.90
54429;DHT22;40337;52.978;6.310;2024-02-28T08:46:57;5.80;99.90
54429;DHT22;40337;52.978;6.310;2024-02-28T08:49:22;5.80;99.90
54429;DHT22;40337;52.978;6.310;2024-02-28T08:51:48;5.90;99.90
54429;DHT22;40337;52.978;6.310;2024-02-28T08:54:14;5.90;99.90
54429;DHT22;40337;52.978;6.310;2024-02-28T08:56:40;5.90;99.90
54429;DHT22;40337;52.978;6.310;2024-02-28T08:59:06;6.00;99.90
54429;DHT22;40337;52.978;6.310;2024-02-28T09:01:31;6.00;99.90
54429;DHT22;40337;52.978;6.310;2024-02-28T09:03:59;6.10;99.90
54429;DHT22;40337;52.978;6.310;2024-02-28T09:06:25;6.10;99.90
54429;DHT22;40337;52.978;6.310;2024-02-28T09:08:50;6.20;99.90
54429;DHT22;40337;52.978;6.310;2024-02-28T09:11:16;6.30;99.90
54429;DHT22;40337;52.978;6.310;2024-02-28T09:13:42;6.30;99.90
54429;DHT22;40337;52.978;6.310;2024-02-28T09:16:07;6.40;99.90
54429;DHT22;40337;52.978;6.310;2024-02-28T09:18:33;6.60;99.90
54429;DHT22;40337;52.978;6.310;2024-02-28T09:20:59;6.70;99.90
54429;DHT22;40337;52.978;6.310;2024-02-28T09:23:24;6.90;99.90
54429;DHT22;40337;52.978;6.310;2024-02-28T09:25:50;7.00;99.90
54429;DHT22;40337;52.978;6.310;2024-02-28T09:28:15;7.00;99.90
54429;DHT22;40337;52.978;6.310;2024-02-28T09:30:42;7.00;99.90
54429;DHT22;40337;52.978;6.310;2024-02-28T09:33:08;7.00;99.90
54429;DHT22;40337;52.978;6.310;2024-02-28T09:35:35;6.90;99.90
54429;DHT22;40337;52.978;6.310;2024-02-28T09:38:02;6.80;99.90
54429;DHT22;40337;52.978;6.310;2024-02-28T09:40:27;6.70;99.90
54429;DHT22;40337;52.978;6.310;2024-02-28T09:42:58;6.80;99.90
54429;DHT22;40337;52.978;6.310;2024-02-28T09:45:26;6.70;99.90
54429;DHT22;40337;52.978;6.310;2024-02-28T09:47:52;6.80;99.90
54429;DHT22;40337;52.978;6.310;2024-02-28T09:50:18;6.80;99.90
54429;DHT22;40337;52.978;6.310;2024-02-28T09:52:45;6.80;99.90
54429;DHT22;40337;52.978;6.310;2024-02-28T09:55:10;6.80;99.90
54429;DHT22;40337;52.978;6.310;2024-02-28T09:57:37;6.80;99.90
54429;DHT22;40337;52.978;6.310;2024-02-28T10:00:03;6.80;99.90
54429;DHT22;40337;52.978;6.310;2024-02-28T10:02:30;6.90;99.90
54429;DHT22;40337;52.978;6.310;2024-02-28T10:04:56;6.90;99.90
54429;DHT22;40337;52.978;6.310;2024-02-28T10:07:26;7.00;99.90
54429;DHT22;40337;52.978;6.310;2024-02-28T10:09:52;7.00;99.90
54429;DHT22;40337;52.978;6.310;2024-02-28T10:12:18;7.10;99.90
54429;DHT22;40337;52.978;6.310;2024-02-28T10:14:44;7.10;99.90
54429;DHT22;40337;52.978;6.310;2024-02-28T10:17:10;7.10;99.90
54429;DHT22;40337;52.978;6.310;2024-02-28T10:19:36;7.10;99.90
54429;DHT22;40337;52.978;6.310;2024-02-28T10:22:01;7.10;99.90
54429;DHT22;40337;52.978;6.310;2024-02-28T10:24:27;7.20;99.90
54429;DHT22;40337;52.978;6.310;2024-02-28T10:26:53;7.20;99.90
54429;DHT22;40337;52.978;6.310;2024-02-28T10:29:22;7.20;99.90
54429;DHT22;40337;52.978;6.310;2024-02-28T10:31:49;7.20;99.90
54429;DHT22;40337;52.978;6.310;2024-02-28T10:34:16;7.30;99.90
54429;DHT22;40337;52.978;6.310;2024-02-28T10:36:43;7.30;99.90
54429;DHT22;40337;52.978;6.310;2024-02-28T10:39:11;7.40;99.90
54429;DHT22;40337;52.978;6.310;2024-02-28T10:41:38;7.40;99.90
54429;DHT22;40337;52.978;6.310;2024-02-28T10:44:04;7.40;99.90
54429;DHT22;40337;52.978;6.310;2024-02-28T10:46:31;7.50;99.90
54429;DHT22;40337;52.978;6.310;2024-02-28T10:48:57;7.60;99.90
54429;DHT22;40337;52.978;6.310;2024-02-28T10:51:24;7.60;99.90
54429;DHT22;40337;52.978;6.310;2024-02-28T10:54:13;7.60;99.90
54429;DHT22;40337;52.978;6.310;2024-02-28T10:56:39;7.70;99.90
54429;DHT22;40337;52.978;6.310;2024-02-28T10:59:07;7.70;99.90
54429;DHT22;40337;52.978;6.310;2024-02-28T11:01:39;7.80;99.90
54429;DHT22;40337;52.978;6.310;2024-02-28T11:04:07;7.90;99.90
54429;DHT22;40337;52.978;6.310;2024-02-28T11:06:33;8.10;99.90
54429;DHT22;40337;52.978;6.310;2024-02-28T11:09:00;8.20;99.90
54429;DHT22;40337;52.978;6.310;2024-02-28T11:11:30;8.40;99.90
54429;DHT22;40337;52.978;6.310;2024-02-28T11:13:59;8.50;99.90
54429;DHT22;40337;52.978;6.310;2024-02-28T11:16:32;8.50;99.90
54429;DHT22;40337;52.978;6.310;2024-02-28T11:18:59;8.60;99.90
54429;DHT22;40337;52.978;6.310;2024-02-28T11:21:28;8.70;99.90
54429;DHT22;40337;52.978;6.310;2024-02-28T11:24:01;8.70;99.90
54429;DHT22;40337;52.978;6.310;2024-02-28T11:26:27;8.70;99.90
54429;DHT22;40337;52.978;6.310;2024-02-28T11:28:56;8.70;99.90
54429;DHT22;40337;52.978;6.310;2024-02-28T11:31:22;8.70;99.90
54429;DHT22;40337;52.978;6.310;2024-02-28T11:33:48;8.70;99.90
54429;DHT22;40337;52.978;6.310;2024-02-28T11:36:14;8.70;99.90
54429;DHT22;40337;52.978;6.310;2024-02-28T11:38:40;8.80;99.90
54429;DHT22;40337;52.978;6.310;2024-02-28T11:41:07;8.80;99.90
54429;DHT22;40337;52.978;6.310;2024-02-28T11:43:32;8.90;99.90
54429;DHT22;40337;52.978;6.310;2024-02-28T11:46:00;8.90;99.90
54429;DHT22;40337;52.978;6.310;2024-02-28T11:48:26;9.00;99.90
54429;DHT22;40337;52.978;6.310;2024-02-28T11:50:53;9.00;99.90
54429;DHT22;40337;52.978;6.310;2024-02-28T11:53:19;9.00;99.90
54429;DHT22;40337;52.978;6.310;2024-02-28T11:55:48;9.00;99.90
54429;DHT22;40337;52.978;6.310;2024-02-28T11:58:14;9.00;99.90
54429;DHT22;40337;52.978;6.310;2024-02-28T12:00:50;9.00;99.90
54429;DHT22;40337;52.978;6.310;2024-02-28T12:03:25;8.90;99.90
54429;DHT22;40337;52.978;6.310;2024-02-28T12:05:52;8.90;99.90
54429;DHT22;40337;52.978;6.310;2024-02-28T12:08:19;8.80;99.90
54429;DHT22;40337;52.978;6.310;2024-02-28T12:10:46;8.80;99.90
54429;DHT22;40337;52.978;6.310;2024-02-28T12:13:16;8.80;99.90
54429;DHT22;40337;52.978;6.310;2024-02-28T12:15:42;8.70;99.90
54429;DHT22;40337;52.978;6.310;2024-02-28T12:18:08;8.80;99.90
54429;DHT22;40337;52.978;6.310;2024-02-28T12:20:52;8.80;99.90
54429;DHT22;40337;52.978;6.310;2024-02-28T12:23:37;8.80;99.90
54429;DHT22;40337;52.978;6.310;2024-02-28T12:26:21;8.90;99.90
54429;DHT22;40337;52.978;6.310;2024-02-28T12:28:47;8.90;99.90
54429;DHT22;40337;52.978;6.310;2024-02-28T12:31:13;9.00;99.90
54429;DHT22;40337;52.978;6.310;2024-02-28T12:33:39;9.00;99.90
54429;DHT22;40337;52.978;6.310;2024-02-28T12:36:05;9.00;99.90
54429;DHT22;40337;52.978;6.310;2024-02-28T12:38:31;8.90;99.90
54429;DHT22;40337;52.978;6.310;2024-02-28T12:40:57;8.90;99.90
54429;DHT22;40337;52.978;6.310;2024-02-28T12:43:23;8.90;99.90
54429;DHT22;40337;52.978;6.310;2024-02-28T12:45:50;8.90;99.90
54429;DHT22;40337;52.978;6.310;2024-02-28T12:48:16;8.90;99.90
54429;DHT22;40337;52.978;6.310;2024-02-28T12:50:41;8.90;99.90
54429;DHT22;40337;52.978;6.310;2024-02-28T12:53:07;8.90;99.90
54429;DHT22;40337;52.978;6.310;2024-02-28T12:55:33;8.90;99.90
54429;DHT22;40337;52.978;6.310;2024-02-28T12:57:58;8.90;99.90
54429;DHT22;40337;52.978;6.310;2024-02-28T13:00:33;8.90;99.90
54429;DHT22;40337;52.978;6.310;2024-02-28T13:02:58;8.90;99.90
54429;DHT22;40337;52.978;6.310;2024-02-28T13:05:24;8.90;99.90
54429;DHT22;40337;52.978;6.310;2024-02-28T13:07:51;8.90;99.90
54429;DHT22;40337;52.978;6.310;2024-02-28T13:10:18;8.90;99.90
54429;DHT22;40337;52.978;6.310;2024-02-28T13:12:44;8.90;99.90
54429;DHT22;40337;52.978;6.310;2024-02-28T13:15:09;8.90;99.90
54429;DHT22;40337;52.978;6.310;2024-02-28T13:17:35;8.90;99.90
54429;DHT22;40337;52.978;6.310;2024-02-28T13:20:01;8.90;99.90
54429;DHT22;40337;52.978;6.310;2024-02-28T13:22:28;8.90;99.90
54429;DHT22;40337;52.978;6.310;2024-02-28T13:24:54;8.90;99.90
54429;DHT22;40337;52.978;6.310;2024-02-28T13:27:20;8.90;99.90
54429;DHT22;40337;52.978;6.310;2024-02-28T13:29:46;8.90;99.90
54429;DHT22;40337;52.978;6.310;2024-02-28T13:32:12;8.90;99.90
54429;DHT22;40337;52.978;6.310;2024-02-28T13:34:39;8.90;99.90
54429;DHT22;40337;52.978;6.310;2024-02-28T13:37:05;8.90;99.90
54429;DHT22;40337;52.978;6.310;2024-02-28T13:39:30;9.00;99.90
54429;DHT22;40337;52.978;6.310;2024-02-28T13:41:57;9.00;99.90
54429;DHT22;40337;52.978;6.310;2024-02-28T13:44:22;9.00;99.90
54429;DHT22;40337;52.978;6.310;2024-02-28T13:46:50;9.00;99.90
54429;DHT22;40337;52.978;6.310;2024-02-28T13:49:17;9.00;99.90
54429;DHT22;40337;52.978;6.310;2024-02-28T13:51:44;9.00;99.90
54429;DHT22;40337;52.978;6.310;2024-02-28T13:54:10;9.00;99.90
54429;DHT22;40337;52.978;6.310;2024-02-28T13:56:36;9.00;99.90
54429;DHT22;40337;52.978;6.310;2024-02-28T13:59:01;9.00;99.90
54429;DHT22;40337;52.978;6.310;2024-02-28T14:01:27;9.00;99.90
54429;DHT22;40337;52.978;6.310;2024-02-28T14:03:54;9.10;99.90
54429;DHT22;40337;52.978;6.310;2024-02-28T14:06:19;9.10;99.90
54429;DHT22;40337;52.978;6.310;2024-02-28T14:08:45;9.00;99.90
54429;DHT22;40337;52.978;6.310;2024-02-28T14:11:11;9.00;99.90
54429;DHT22;40337;52.978;6.310;2024-02-28T14:13:37;9.00;99.90
54429;DHT22;40337;52.978;6.310;2024-02-28T14:16:05;9.00;99.90
54429;DHT22;40337;52.978;6.310;2024-02-28T14:18:31;8.90;99.90
54429;DHT22;40337;52.978;6.310;2024-02-28T14:20:57;8.90;99.90
54429;DHT22;40337;52.978;6.310;2024-02-28T14:23:22;8.90;99.90
54429;DHT22;40337;52.978;6.310;2024-02-28T14:25:48;8.80;99.90
54429;DHT22;40337;52.978;6.310;2024-02-28T14:28:14;8.90;99.90
54429;DHT22;40337;52.978;6.310;2024-02-28T14:30:39;8.90;99.90
54429;DHT22;40337;52.978;6.310;2024-02-28T14:33:05;8.90;99.90
54429;DHT22;40337;52.978;6.310;2024-02-28T14:35:31;8.90;99.90
54429;DHT22;40337;52.978;6.310;2024-02-28T14:37:57;9.00;99.90
54429;DHT22;40337;52.978;6.310;2024-02-28T14:40:23;9.00;99.90
54429;DHT22;40337;52.978;6.310;2024-02-28T14:42:48;9.00;99.90
54429;DHT22;40337;52.978;6.310;2024-02-28T14:45:14;9.00;99.90
54429;DHT22;40337;52.978;6.310;2024-02-28T14:47:40;9.00;99.90
54429;DHT22;40337;52.978;6.310;2024-02-28T14:50:07;9.00;99.90
54429;DHT22;40337;52.978;6.310;2024-02-28T14:52:40;9.00;99.90
54429;DHT22;40337;52.978;6.310;2024-02-28T14:55:07;9.00;99.90
54429;DHT22;40337;52.978;6.310;2024-02-28T14:57:34;9.10;99.90
54429;DHT22;40337;52.978;6.310;2024-02-28T15:00:00;9.10;99.90
54429;DHT22;40337;52.978;6.310;2024-02-28T15:02:26;9.10;99.90
54429;DHT22;40337;52.978;6.310;2024-02-28T15:04:51;9.10;99.90
54429;DHT22;40337;52.978;6.310;2024-02-28T15:07:17;9.10;99.90
54429;DHT22;40337;52.978;6.310;2024-02-28T15:09:43;9.10;99.90
54429;DHT22;40337;52.978;6.310;2024-02-28T15:12:09;9.10;99.90
54429;DHT22;40337;52.978;6.310;2024-02-28T15:14:35;9.10;99.90
54429;DHT22;40337;52.978;6.310;2024-02-28T15:17:01;9.10;99.90
54429;DHT22;40337;52.978;6.310;2024-02-28T15:19:27;9.10;99.90
54429;DHT22;40337;52.978;6.310;2024-02-28T15:21:53;9.10;99.90
54429;DHT22;40337;52.978;6.310;2024-02-28T15:24:20;9.10;99.90
54429;DHT22;40337;52.978;6.310;2024-02-28T15:26:47;9.10;99.90
54429;DHT22;40337;52.978;6.310;2024-02-28T15:29:13;9.10;99.90
54429;DHT22;40337;52.978;6.310;2024-02-28T15:31:39;9.10;99.90
54429;DHT22;40337;52.978;6.310;2024-02-28T15:34:05;9.10;99.90
54429;DHT22;40337;52.978;6.310;2024-02-28T15:36:30;9.10;99.90
54429;DHT22;40337;52.978;6.310;2024-02-28T15:38:56;9.10;99.90
54429;DHT22;40337;52.978;6.310;2024-02-28T15:41:22;9.00;99.90